Time;durP1;ratioP1;P1;durP2;ratioP2;P2;SDS_P1;SDS_P2;PMS_P1;PMS_P2;Temp;Humidity;BMP_temperature;BMP_pressure;BME280_temperature;BME280_humidity;BME280_pressure;Samples;Min_cycle;Max_cycle;Signal;HPM_P1;HPM_P2
2022/10/13 00:04:01;;;;;;;10.07;5.18;;;;;;;;;;10298085;28;20027;-74
2022/10/13 00:09:02;;;;;;;8.80;5.40;;;;;;;;;;10298165;28;20027;-83
2022/10/13 00:14:03;;;;;;;7.57;4.10;;;;;;;;;;10303205;28;20145;-75
2022/10/13 00:19:03;;;;;;;9.20;5.05;;;;;;;;;;10305563;28;20034;-78
2022/10/13 00:24:03;;;;;;;11.93;5.18;;;;;;;;;;10303660;28;20073;-75
2022/10/13 00:29:05;;;;;;;8.07;4.83;;;;;;;;;;10304408;28;20417;-81
2022/10/13 00:34:05;;;;;;;8.65;4.90;;;;;;;;;;10305959;28;20057;-74
2022/10/13 00:39:05;;;;;;;9.43;4.53;;;;;;;;;;10306746;28;20021;-74
2022/10/13 00:44:25;;;;;;;8.85;4.93;;;;;;;;;;10304347;28;20484;-74
2022/10/13 00:49:26;;;;;;;13.30;5.97;;;;;;;;;;10303363;28;20035;-74
2022/10/13 00:54:26;;;;;;;13.93;6.60;;;;;;;;;;10306311;28;20026;-74
2022/10/13 00:59:28;;;;;;;11.25;5.60;;;;;;;;;;10303302;28;20025;-79
2022/10/13 01:04:36;;;;;;;11.20;6.40;;;;;;;;;;10306357;28;20484;-76
2022/10/13 01:09:36;;;;;;;13.80;7.30;;;;;;;;;;10305414;28;20542;-80
2022/10/13 01:14:39;;;;;;;10.55;6.45;;;;;;;;;;10306120;23;20057;-73
2022/10/13 01:19:58;;;;;;;12.20;6.72;;;;;;;;;;10284427;28;20031;-79
2022/10/13 01:24:58;;;;;;;11.88;5.90;;;;;;;;;;10298858;28;20027;-75
2022/10/13 01:30:10;;;;;;;12.38;6.90;;;;;;;;;;10287285;28;20039;-75
2022/10/13 01:35:12;;;;;;;13.93;6.93;;;;;;;;;;10308707;28;20018;-75
2022/10/13 01:40:22;;;;;;;12.07;7.13;;;;;;;;;;10299470;28;20110;-77
2022/10/13 01:45:25;;;;;;;19.23;11.35;;;;;;;;;;10291144;28;20570;-75
2022/10/13 01:50:26;;;;;;;19.58;6.95;;;;;;;;;;10285157;28;20031;-78
2022/10/13 01:55:27;;;;;;;16.95;8.50;;;;;;;;;;10283549;28;20026;-77
2022/10/13 02:00:30;;;;;;;13.43;7.97;;;;;;;;;;10283064;28;20485;-76
2022/10/13 02:05:47;;;;;;;16.30;8.27;;;;;;;;;;10283468;28;20088;-79
2022/10/13 02:10:51;;;;;;;19.40;9.70;;;;;;;;;;10284669;28;20100;-80
2022/10/13 02:15:54;;;;;;;20.13;10.13;;;;;;;;;;10281178;28;20417;-75
2022/10/13 02:20:54;;;;;;;19.70;10.23;;;;;;;;;;10281789;28;20026;-83
2022/10/13 02:25:56;;;;;;;22.10;10.38;;;;;;;;;;10281613;28;20030;-74
2022/10/13 02:30:56;;;;;;;19.33;9.90;;;;;;;;;;10280974;28;20031;-76
2022/10/13 02:35:56;;;;;;;18.23;10.07;;;;;;;;;;10281274;28;20074;-74
2022/10/13 02:40:57;;;;;;;20.58;10.77;;;;;;;;;;10281074;28;20023;-82
2022/10/13 02:45:57;;;;;;;18.70;9.50;;;;;;;;;;10281102;28;20026;-73
2022/10/13 02:50:57;;;;;;;20.92;10.88;;;;;;;;;;10281397;28;20015;-74
2022/10/13 02:55:57;;;;;;;19.95;10.48;;;;;;;;;;10280160;28;20035;-76
2022/10/13 03:01:08;;;;;;;22.10;10.73;;;;;;;;;;10281675;28;20014;-75
2022/10/13 03:06:08;;;;;;;20.10;10.60;;;;;;;;;;10281266;28;20023;-75
2022/10/13 03:11:08;;;;;;;24.90;12.38;;;;;;;;;;10280366;28;20046;-79
2022/10/13 03:16:09;;;;;;;22.35;11.90;;;;;;;;;;10264083;28;20527;-73
2022/10/13 03:21:09;;;;;;;23.07;12.10;;;;;;;;;;10281894;28;20023;-74
2022/10/13 03:26:09;;;;;;;18.98;11.35;;;;;;;;;;10280375;28;20290;-79
2022/10/13 03:31:10;;;;;;;21.42;12.15;;;;;;;;;;10279748;28;20398;-76
2022/10/13 03:36:12;;;;;;;24.58;13.05;;;;;;;;;;10280272;28;20105;-75
2022/10/13 03:41:16;;;;;;;25.48;13.50;;;;;;;;;;10280103;28;20030;-80
2022/10/13 03:46:16;;;;;;;23.60;12.98;;;;;;;;;;10280330;28;20031;-79
2022/10/13 03:51:18;;;;;;;20.63;12.25;;;;;;;;;;10283940;28;20032;-75
2022/10/13 03:56:20;;;;;;;18.77;11.88;;;;;;;;;;10285972;28;20504;-73
2022/10/13 04:01:21;;;;;;;22.30;12.32;;;;;;;;;;10288648;28;20018;-82
2022/10/13 04:06:22;;;;;;;19.95;12.00;;;;;;;;;;10287579;28;20086;-75
2022/10/13 04:11:23;;;;;;;22.13;11.93;;;;;;;;;;10277633;28;20058;-75
2022/10/13 04:16:24;;;;;;;24.00;13.25;;;;;;;;;;10287424;28;20033;-78
2022/10/13 04:21:25;;;;;;;20.02;11.18;;;;;;;;;;10284365;28;20027;-74
2022/10/13 04:26:26;;;;;;;25.48;11.30;;;;;;;;;;10286496;28;20398;-79
2022/10/13 04:31:27;;;;;;;26.77;12.88;;;;;;;;;;10284653;28;20030;-78
2022/10/13 04:36:28;;;;;;;24.35;11.80;;;;;;;;;;10285758;28;20481;-77
2022/10/13 04:41:28;;;;;;;27.42;12.32;;;;;;;;;;10285419;28;20027;-78
2022/10/13 04:46:28;;;;;;;32.30;14.35;;;;;;;;;;10281807;28;20038;-77
2022/10/13 04:51:28;;;;;;;38.00;15.60;;;;;;;;;;10282822;28;20037;-74
2022/10/13 04:56:29;;;;;;;29.80;14.70;;;;;;;;;;10279396;28;20038;-75
2022/10/13 05:01:29;;;;;;;35.35;17.45;;;;;;;;;;10263884;28;20019;-74
2022/10/13 05:06:31;;;;;;;49.33;19.02;;;;;;;;;;10280235;28;20026;-75
2022/10/13 05:11:32;;;;;;;43.88;18.80;;;;;;;;;;10284903;28;20104;-74
2022/10/13 05:16:32;;;;;;;40.90;18.13;;;;;;;;;;10282946;28;20490;-75
2022/10/13 05:21:32;;;;;;;37.22;16.75;;;;;;;;;;10282965;28;20029;-77
2022/10/13 05:26:34;;;;;;;40.85;20.33;;;;;;;;;;10284452;28;20026;-74
2022/10/13 05:31:35;;;;;;;40.60;21.17;;;;;;;;;;10287086;28;20035;-77
2022/10/13 05:36:35;;;;;;;44.03;19.45;;;;;;;;;;10281310;28;20019;-75
2022/10/13 05:41:35;;;;;;;45.85;21.45;;;;;;;;;;10279600;28;20401;-75
2022/10/13 05:46:36;;;;;;;50.80;22.00;;;;;;;;;;10281769;28;20077;-78
2022/10/13 05:51:41;;;;;;;52.55;22.23;;;;;;;;;;10282576;28;20049;-75
2022/10/13 05:56:45;;;;;;;50.40;22.45;;;;;;;;;;10280975;28;20038;-79
2022/10/13 06:01:45;;;;;;;56.13;24.48;;;;;;;;;;10279219;28;20402;-76
2022/10/13 06:06:47;;;;;;;56.95;25.60;;;;;;;;;;10265029;28;20030;-75
2022/10/13 06:11:47;;;;;;;61.33;27.17;;;;;;;;;;10280380;28;20121;-76
2022/10/13 06:16:47;;;;;;;60.45;29.30;;;;;;;;;;10281838;28;20181;-82
2022/10/13 06:21:48;;;;;;;59.10;27.45;;;;;;;;;;10281710;28;20022;-76
2022/10/13 06:26:48;;;;;;;49.37;23.83;;;;;;;;;;10278961;28;20108;-80
2022/10/13 06:31:48;;;;;;;46.40;21.73;;;;;;;;;;10281616;28;20557;-75
2022/10/13 06:36:49;;;;;;;39.75;20.73;;;;;;;;;;10281721;28;20022;-74
2022/10/13 06:41:49;;;;;;;48.42;20.95;;;;;;;;;;10278589;28;20010;-75
2022/10/13 06:46:49;;;;;;;36.03;18.95;;;;;;;;;;10280733;28;20034;-83
2022/10/13 06:51:50;;;;;;;40.22;19.63;;;;;;;;;;10281224;28;20473;-76
2022/10/13 06:56:50;;;;;;;38.13;18.13;;;;;;;;;;10278482;28;20019;-75
2022/10/13 07:01:52;;;;;;;32.72;16.95;;;;;;;;;;10280382;28;20030;-79
2022/10/13 07:06:52;;;;;;;28.55;16.00;;;;;;;;;;10278982;28;20046;-76
2022/10/13 07:11:52;;;;;;;32.63;16.58;;;;;;;;;;10278084;28;20613;-76
2022/10/13 07:16:53;;;;;;;37.23;17.30;;;;;;;;;;10280481;28;20026;-77
2022/10/13 07:21:53;;;;;;;33.55;15.15;;;;;;;;;;10279311;28;20414;-75
2022/10/13 07:26:53;;;;;;;30.92;16.55;;;;;;;;;;10288573;28;20627;-83
2022/10/13 07:31:53;;;;;;;21.23;11.65;;;;;;;;;;10288158;28;20076;-82
2022/10/13 07:36:54;;;;;;;29.58;16.52;;;;;;;;;;10288334;28;20018;-79
2022/10/13 07:41:54;;;;;;;57.00;24.80;;;;;;;;;;10287934;28;20035;-74
2022/10/13 07:46:54;;;;;;;55.53;24.23;;;;;;;;;;10287650;28;20138;-75
2022/10/13 07:51:54;;;;;;;45.25;22.17;;;;;;;;;;10288345;28;20114;-74
2022/10/13 07:56:55;;;;;;;43.03;22.38;;;;;;;;;;10287375;28;20018;-75
2022/10/13 08:01:55;;;;;;;42.67;22.52;;;;;;;;;;10285904;28;20011;-74
2022/10/13 08:06:55;;;;;;;51.85;23.67;;;;;;;;;;10287957;28;20023;-78
2022/10/13 08:11:56;;;;;;;40.53;19.83;;;;;;;;;;10286772;28;20042;-78
2022/10/13 08:16:56;;;;;;;50.85;19.73;;;;;;;;;;10287458;28;20023;-80
2022/10/13 08:21:56;;;;;;;39.35;20.15;;;;;;;;;;10286227;28;20019;-78
2022/10/13 08:26:57;;;;;;;41.75;19.23;;;;;;;;;;10285972;28;20046;-78
2022/10/13 08:31:57;;;;;;;40.87;19.17;;;;;;;;;;10286981;28;20031;-74
2022/10/13 08:36:59;;;;;;;32.25;17.88;;;;;;;;;;10285268;28;20520;-79
2022/10/13 08:41:59;;;;;;;36.42;17.33;;;;;;;;;;10285026;28;20025;-73
2022/10/13 08:47:12;;;;;;;36.25;18.23;;;;;;;;;;10284990;28;20015;-74
2022/10/13 08:52:16;;;;;;;39.25;18.10;;;;;;;;;;10284907;28;20018;-75
2022/10/13 08:57:17;;;;;;;34.78;17.15;;;;;;;;;;10285103;28;20027;-74
2022/10/13 09:02:29;;;;;;;31.20;17.08;;;;;;;;;;10284332;28;20027;-78
2022/10/13 09:07:31;;;;;;;36.70;19.42;;;;;;;;;;10284069;28;20015;-73
2022/10/13 09:12:32;;;;;;;36.75;16.35;;;;;;;;;;10284048;28;20039;-76
2022/10/13 09:17:33;;;;;;;32.92;18.52;;;;;;;;;;10284207;28;20023;-74
2022/10/13 09:22:38;;;;;;;34.20;16.75;;;;;;;;;;10267191;28;20025;-74
2022/10/13 09:28:10;;;;;;;32.00;15.00;;;;;;;;;;10281780;28;20085;-82
2022/10/13 09:33:11;;;;;;;29.50;13.38;;;;;;;;;;10261507;28;20151;-76
2022/10/13 09:38:21;;;;;;;24.55;13.05;;;;;;;;;;10283251;28;20134;-76
2022/10/13 09:43:32;;;;;;;29.30;12.70;;;;;;;;;;10285711;28;20031;-79
2022/10/13 09:48:35;;;;;;;18.70;10.38;;;;;;;;;;10297443;28;20042;-79
2022/10/13 09:53:39;;;;;;;18.13;11.00;;;;;;;;;;10283786;28;20047;-74
2022/10/13 09:59:04;;;;;;;21.80;9.75;;;;;;;;;;10284178;28;20053;-76
2022/10/13 10:04:21;;;;;;;17.42;8.38;;;;;;;;;;10283605;28;20027;-75
2022/10/13 10:09:32;;;;;;;19.05;8.55;;;;;;;;;;10285751;28;20023;-76
2022/10/13 10:14:33;;;;;;;20.20;10.63;;;;;;;;;;10269853;28;20078;-75
2022/10/13 10:19:43;;;;;;;20.85;9.20;;;;;;;;;;10282513;28;20018;-77
2022/10/13 10:24:44;;;;;;;23.08;8.30;;;;;;;;;;10280944;28;20023;-76
2022/10/13 10:30:04;;;;;;;21.30;10.77;;;;;;;;;;10280587;28;20026;-74
2022/10/13 10:35:11;;;;;;;13.40;8.10;;;;;;;;;;10279162;28;20043;-75
2022/10/13 10:40:30;;;;;;;18.77;8.77;;;;;;;;;;10278272;28;20631;-75
2022/10/13 10:45:33;;;;;;;20.02;8.93;;;;;;;;;;10279677;28;20050;-78
2022/10/13 10:50:34;;;;;;;14.73;7.32;;;;;;;;;;10280752;28;20066;-73
2022/10/13 10:55:39;;;;;;;17.60;6.68;;;;;;;;;;10279993;28;20569;-75
2022/10/13 11:00:47;;;;;;;15.07;6.55;;;;;;;;;;10279717;28;20022;-74
2022/10/13 11:06:02;;;;;;;18.23;6.88;;;;;;;;;;10279845;28;20493;-78
2022/10/13 11:11:21;;;;;;;12.10;6.60;;;;;;;;;;10278592;28;20046;-84
2022/10/13 11:16:40;;;;;;;13.40;6.82;;;;;;;;;;10279954;28;20035;-73
2022/10/13 11:21:53;;;;;;;20.27;7.25;;;;;;;;;;10279403;28;20618;-77
2022/10/13 11:26:53;;;;;;;12.85;7.15;;;;;;;;;;10280705;28;20015;-75
2022/10/13 11:31:54;;;;;;;12.53;7.20;;;;;;;;;;10280106;28;20019;-75
2022/10/13 11:36:55;;;;;;;20.48;7.78;;;;;;;;;;10276411;28;20093;-74
2022/10/13 11:42:11;;;;;;;21.27;8.63;;;;;;;;;;10279143;28;20015;-76
2022/10/13 11:47:37;;;;;;;14.63;7.40;;;;;;;;;;10278242;28;20023;-76
2022/10/13 11:53:07;;;;;;;18.65;7.55;;;;;;;;;;10257036;28;20069;-83
2022/10/13 11:58:18;;;;;;;13.65;7.30;;;;;;;;;;10270406;28;20535;-76
2022/10/13 12:03:20;;;;;;;17.30;7.10;;;;;;;;;;10279297;28;20023;-79
2022/10/13 12:08:20;;;;;;;18.23;8.27;;;;;;;;;;10279148;28;20470;-75
2022/10/13 12:13:22;;;;;;;20.70;7.53;;;;;;;;;;10285902;28;20105;-75
2022/10/13 12:18:26;;;;;;;14.70;6.90;;;;;;;;;;10285919;28;20034;-80
2022/10/13 12:23:28;;;;;;;12.60;6.57;;;;;;;;;;10285650;28;20487;-76
2022/10/13 12:28:29;;;;;;;16.40;8.95;;;;;;;;;;10277494;28;20070;-74
2022/10/13 12:33:33;;;;;;;17.40;8.02;;;;;;;;;;10282447;28;20480;-76
2022/10/13 12:38:34;;;;;;;14.50;7.90;;;;;;;;;;10280737;28;20019;-81
2022/10/13 12:43:34;;;;;;;20.80;7.85;;;;;;;;;;10282528;28;20041;-77
2022/10/13 12:48:35;;;;;;;15.30;7.82;;;;;;;;;;10285536;28;20033;-77
2022/10/13 12:53:36;;;;;;;26.58;10.30;;;;;;;;;;10281978;28;20089;-79
2022/10/13 12:58:41;;;;;;;20.67;9.57;;;;;;;;;;10280969;28;20023;-75
2022/10/13 13:03:42;;;;;;;19.35;8.00;;;;;;;;;;10281799;28;20085;-82
2022/10/13 13:08:42;;;;;;;18.33;9.68;;;;;;;;;;10278118;28;20018;-81
2022/10/13 13:13:42;;;;;;;17.33;9.07;;;;;;;;;;10280239;28;20722;-76
2022/10/13 13:18:44;;;;;;;15.02;7.10;;;;;;;;;;10280099;28;20030;-83
2022/10/13 13:23:46;;;;;;;12.65;7.43;;;;;;;;;;10278834;28;20113;-82
2022/10/13 13:28:47;;;;;;;15.07;8.45;;;;;;;;;;10279996;28;20023;-80
2022/10/13 13:33:48;;;;;;;13.20;6.70;;;;;;;;;;10281832;28;20062;-76
2022/10/13 13:38:48;;;;;;;18.60;7.23;;;;;;;;;;10282387;28;20110;-76
2022/10/13 13:43:48;;;;;;;23.23;9.70;;;;;;;;;;10280959;28;20297;-77
2022/10/13 13:48:49;;;;;;;18.27;7.10;;;;;;;;;;10277838;28;20101;-76
2022/10/13 13:53:49;;;;;;;18.40;7.20;;;;;;;;;;10279504;28;20019;-75
2022/10/13 13:58:49;;;;;;;16.92;7.43;;;;;;;;;;10280100;28;20023;-80
2022/10/13 14:03:49;;;;;;;15.10;7.25;;;;;;;;;;10277871;28;20015;-76
2022/10/13 14:08:50;;;;;;;14.07;5.88;;;;;;;;;;10278363;28;20019;-78
2022/10/13 14:13:50;;;;;;;12.30;5.67;;;;;;;;;;10262347;28;20096;-80
2022/10/13 14:18:50;;;;;;;19.55;7.63;;;;;;;;;;10279132;28;20833;-77
2022/10/13 14:23:51;;;;;;;16.70;6.90;;;;;;;;;;10278125;28;20085;-76
2022/10/13 14:28:51;;;;;;;12.25;6.57;;;;;;;;;;10280010;28;20030;-76
2022/10/13 14:33:51;;;;;;;12.70;7.20;;;;;;;;;;10277323;28;20017;-80
2022/10/13 14:38:53;;;;;;;32.45;7.68;;;;;;;;;;10280518;28;20011;-76
2022/10/13 14:43:53;;;;;;;13.85;6.97;;;;;;;;;;10286307;28;20045;-75
2022/10/13 14:48:54;;;;;;;18.88;6.95;;;;;;;;;;10279523;28;20023;-75
2022/10/13 14:53:54;;;;;;;11.98;5.35;;;;;;;;;;10280895;28;20563;-79
2022/10/13 14:58:56;;;;;;;12.25;6.13;;;;;;;;;;10279216;28;20022;-80
2022/10/13 15:03:56;;;;;;;16.40;7.10;;;;;;;;;;10279156;28;20021;-76
2022/10/13 15:08:56;;;;;;;12.05;6.80;;;;;;;;;;10278923;28;20018;-81
2022/10/13 15:13:56;;;;;;;15.53;7.20;;;;;;;;;;10279641;28;20062;-78
2022/10/13 15:18:57;;;;;;;12.32;5.97;;;;;;;;;;10279169;28;20788;-77
2022/10/13 15:23:57;;;;;;;21.20;7.82;;;;;;;;;;10278903;28;20019;-76
2022/10/13 15:28:57;;;;;;;16.17;7.75;;;;;;;;;;10278701;28;20023;-78
2022/10/13 15:33:57;;;;;;;12.45;6.30;;;;;;;;;;10278326;28;20031;-78
2022/10/13 15:38:58;;;;;;;12.93;6.82;;;;;;;;;;10278695;28;20118;-80
2022/10/13 15:43:58;;;;;;;14.60;7.97;;;;;;;;;;10279980;28;20135;-79
2022/10/13 15:48:58;;;;;;;17.50;7.03;;;;;;;;;;10285604;28;20113;-75
2022/10/13 15:53:59;;;;;;;14.07;6.27;;;;;;;;;;10286108;28;20026;-83
2022/10/13 15:58:59;;;;;;;14.18;6.50;;;;;;;;;;10286195;28;20377;-80
2022/10/13 16:03:59;;;;;;;13.50;5.85;;;;;;;;;;10286140;28;20023;-74
2022/10/13 16:08:59;;;;;;;11.27;5.70;;;;;;;;;;10269527;28;20046;-75
2022/10/13 16:14:00;;;;;;;18.13;7.40;;;;;;;;;;10287017;28;20521;-75
2022/10/13 16:19:00;;;;;;;14.95;6.53;;;;;;;;;;10285337;28;20022;-79
2022/10/13 16:24:00;;;;;;;20.70;6.72;;;;;;;;;;10284777;28;20109;-75
2022/10/13 16:29:02;;;;;;;12.10;6.65;;;;;;;;;;10284545;28;20394;-81
2022/10/13 16:34:02;;;;;;;10.20;5.85;;;;;;;;;;10285480;28;20101;-78
2022/10/13 16:39:03;;;;;;;11.82;6.15;;;;;;;;;;10283670;28;20448;-79
2022/10/13 16:44:06;;;;;;;18.17;5.95;;;;;;;;;;10284194;28;20504;-76
2022/10/13 16:49:07;;;;;;;10.52;5.72;;;;;;;;;;10283263;28;20058;-83
2022/10/13 16:54:08;;;;;;;11.00;5.35;;;;;;;;;;10283501;28;20417;-81
2022/10/13 16:59:09;;;;;;;7.90;5.60;;;;;;;;;;10280374;28;20019;-75
2022/10/13 17:04:09;;;;;;;10.55;6.38;;;;;;;;;;10269625;28;20556;-75
2022/10/13 17:09:10;;;;;;;14.43;6.22;;;;;;;;;;10280940;28;20019;-76
2022/10/13 17:14:10;;;;;;;9.15;5.50;;;;;;;;;;10277348;28;20055;-81
2022/10/13 17:19:10;;;;;;;13.33;6.47;;;;;;;;;;10272384;28;20026;-75
2022/10/13 17:24:11;;;;;;;11.27;6.53;;;;;;;;;;10274578;28;20113;-80
2022/10/13 17:29:11;;;;;;;14.80;6.72;;;;;;;;;;10274742;28;20026;-76
2022/10/13 17:34:11;;;;;;;15.10;7.73;;;;;;;;;;10276227;28;20031;-77
2022/10/13 17:39:12;;;;;;;18.17;8.07;;;;;;;;;;10276423;28;20015;-76
2022/10/13 17:44:14;;;;;;;13.68;8.18;;;;;;;;;;10271614;28;20189;-77
2022/10/13 17:49:15;;;;;;;16.25;8.45;;;;;;;;;;10287125;28;20062;-76
2022/10/13 17:54:15;;;;;;;10.15;6.43;;;;;;;;;;10269910;28;20023;-76
2022/10/13 17:59:16;;;;;;;15.85;7.60;;;;;;;;;;10273880;28;20416;-76
2022/10/13 18:04:17;;;;;;;15.75;7.88;;;;;;;;;;10274007;28;20560;-78
2022/10/13 18:09:18;;;;;;;13.52;7.25;;;;;;;;;;10266438;28;20026;-74
2022/10/13 18:14:20;;;;;;;20.63;7.38;;;;;;;;;;10272349;28;20065;-80
2022/10/13 18:19:20;;;;;;;26.25;12.73;;;;;;;;;;10278054;28;20030;-79
2022/10/13 18:24:20;;;;;;;10.48;5.93;;;;;;;;;;10273910;28;20039;-73
2022/10/13 18:29:21;;;;;;;11.82;6.63;;;;;;;;;;10256759;28;20125;-76
2022/10/13 18:34:22;;;;;;;13.38;7.15;;;;;;;;;;10277179;28;20034;-80
2022/10/13 18:39:24;;;;;;;14.43;7.22;;;;;;;;;;10280043;28;20110;-73
2022/10/13 18:44:24;;;;;;;12.93;7.07;;;;;;;;;;10283019;28;20470;-74
2022/10/13 18:49:31;;;;;;;18.60;6.70;;;;;;;;;;10279569;28;20125;-74
2022/10/13 18:54:32;;;;;;;11.30;6.65;;;;;;;;;;10274794;28;20027;-77
2022/10/13 18:59:37;;;;;;;15.13;6.72;;;;;;;;;;10274121;28;20022;-77
2022/10/13 19:04:37;;;;;;;14.32;7.80;;;;;;;;;;10275326;28;20026;-75
2022/10/13 19:09:37;;;;;;;11.20;6.63;;;;;;;;;;10275901;28;20472;-75
2022/10/13 19:14:38;;;;;;;13.30;7.00;;;;;;;;;;10273808;28;20113;-74
2022/10/13 19:19:39;;;;;;;13.15;6.78;;;;;;;;;;10279821;28;20035;-73
2022/10/13 19:24:39;;;;;;;14.57;6.75;;;;;;;;;;10281889;28;20023;-75
2022/10/13 19:29:40;;;;;;;38.08;10.15;;;;;;;;;;10283963;28;20030;-79
2022/10/13 19:34:40;;;;;;;11.43;6.77;;;;;;;;;;10283781;28;20473;-75
2022/10/13 19:39:40;;;;;;;10.95;6.50;;;;;;;;;;10283323;28;20022;-76
2022/10/13 19:44:40;;;;;;;15.60;6.90;;;;;;;;;;10298920;28;20493;-74
2022/10/13 19:49:41;;;;;;;16.77;7.10;;;;;;;;;;10282514;28;20038;-75
2022/10/13 19:54:41;;;;;;;16.38;6.78;;;;;;;;;;10277536;28;20029;-74
2022/10/13 19:59:41;;;;;;;17.02;6.85;;;;;;;;;;10280956;28;20062;-75
2022/10/13 20:04:41;;;;;;;15.18;8.85;;;;;;;;;;10281709;28;20031;-81
2022/10/13 20:09:42;;;;;;;14.50;8.07;;;;;;;;;;10281421;28;20073;-74
2022/10/13 20:14:42;;;;;;;13.97;8.00;;;;;;;;;;10282165;28;20057;-75
2022/10/13 20:19:43;;;;;;;17.98;8.77;;;;;;;;;;10266160;28;20033;-74
2022/10/13 20:24:43;;;;;;;17.40;7.60;;;;;;;;;;10282472;28;20037;-71
2022/10/13 20:29:43;;;;;;;15.20;7.43;;;;;;;;;;10280322;28;20038;-75
2022/10/13 20:34:44;;;;;;;13.10;7.10;;;;;;;;;;10276072;28;20035;-76
2022/10/13 20:39:45;;;;;;;12.52;7.07;;;;;;;;;;10280586;28;20030;-75
2022/10/13 20:44:45;;;;;;;17.20;7.28;;;;;;;;;;10278989;28;20027;-82
2022/10/13 20:49:46;;;;;;;15.95;7.03;;;;;;;;;;10282287;28;20035;-80
2022/10/13 20:54:46;;;;;;;10.90;7.35;;;;;;;;;;10284525;28;20034;-79
2022/10/13 20:59:47;;;;;;;12.68;7.38;;;;;;;;;;10282733;28;20023;-71
2022/10/13 21:04:48;;;;;;;14.05;7.75;;;;;;;;;;10273394;28;20053;-75
2022/10/13 21:09:48;;;;;;;11.77;6.93;;;;;;;;;;10277902;28;20035;-83
2022/10/13 21:14:48;;;;;;;11.93;6.97;;;;;;;;;;10279827;28;20515;-81
2022/10/13 21:19:49;;;;;;;13.73;7.80;;;;;;;;;;10279880;28;20401;-76
2022/10/13 21:24:50;;;;;;;12.45;6.53;;;;;;;;;;10274204;28;20074;-75
2022/10/13 21:29:50;;;;;;;12.77;7.00;;;;;;;;;;10276061;28;20185;-73
2022/10/13 21:34:52;;;;;;;14.57;8.10;;;;;;;;;;10281140;28;20404;-76
2022/10/13 21:39:52;;;;;;;14.07;7.88;;;;;;;;;;10281363;28;20549;-76
2022/10/13 21:44:52;;;;;;;12.65;7.63;;;;;;;;;;10282385;28;20018;-79
2022/10/13 21:49:53;;;;;;;18.58;8.23;;;;;;;;;;10283147;28;20077;-76
2022/10/13 21:54:53;;;;;;;17.58;8.38;;;;;;;;;;10283248;28;20023;-83
2022/10/13 21:59:54;;;;;;;13.43;7.97;;;;;;;;;;10282463;28;20357;-82
2022/10/13 22:04:55;;;;;;;9.68;6.93;;;;;;;;;;10281006;28;20033;-84
2022/10/13 22:09:55;;;;;;;12.88;5.97;;;;;;;;;;10282976;28;20023;-82
2022/10/13 22:14:55;;;;;;;12.35;6.05;;;;;;;;;;10282041;28;20125;-76
2022/10/13 22:19:56;;;;;;;13.38;5.60;;;;;;;;;;10283299;28;20391;-83
2022/10/13 22:24:56;;;;;;;10.10;6.45;;;;;;;;;;10289982;28;20113;-80
2022/10/13 22:29:56;;;;;;;15.65;5.53;;;;;;;;;;10283311;28;20023;-84
2022/10/13 22:34:56;;;;;;;15.98;5.88;;;;;;;;;;10281033;28;20096;-79
2022/10/13 22:39:57;;;;;;;17.55;6.18;;;;;;;;;;10281333;28;20023;-74
2022/10/13 22:44:57;;;;;;;8.93;6.20;;;;;;;;;;10281611;28;20038;-74
2022/10/13 22:49:57;;;;;;;14.52;7.13;;;;;;;;;;10280197;28;20380;-75
2022/10/13 22:54:57;;;;;;;14.65;5.63;;;;;;;;;;10278734;28;20026;-82
2022/10/13 22:59:57;;;;;;;13.35;6.38;;;;;;;;;;10281022;28;20027;-75
2022/10/13 23:04:58;;;;;;;12.52;7.13;;;;;;;;;;10280155;28;20023;-74
2022/10/13 23:09:58;;;;;;;12.20;7.10;;;;;;;;;;10279939;28;20039;-75
2022/10/13 23:14:58;;;;;;;10.83;5.70;;;;;;;;;;10282583;28;20051;-79
2022/10/13 23:19:58;;;;;;;15.38;6.40;;;;;;;;;;10282077;28;20058;-74
2022/10/13 23:24:59;;;;;;;10.77;5.97;;;;;;;;;;10264259;28;20495;-73
2022/10/13 23:29:59;;;;;;;10.57;5.97;;;;;;;;;;10280636;28;20030;-75
2022/10/13 23:34:59;;;;;;;10.80;4.93;;;;;;;;;;10264580;28;20034;-75
2022/10/13 23:39:59;;;;;;;10.45;5.95;;;;;;;;;;10280580;28;20022;-75
2022/10/13 23:45:00;;;;;;;12.93;5.93;;;;;;;;;;10279906;28;20089;-75
2022/10/13 23:50:00;;;;;;;7.82;4.07;;;;;;;;;;10280375;28;20037;-76
2022/10/13 23:55:00;;;;;;;7.20;4.30;;;;;;;;;;10279980;28;20027;-75
